Time;durP1;ratioP1;P1;durP2;ratioP2;P2;SDS_P1;SDS_P2;PMS_P1;PMS_P2;Temp;Humidity;BMP_temperature;BMP_pressure;BME280_temperature;BME280_humidity;BME280_pressure;Samples;Min_cycle;Max_cycle;Signal;HPM_P1;HPM_P2
2023/07/18 00:00:27;;;;;;;5.72;2.45;;;17.50;77.80;;;;;;5077083;28;20471;-75
2023/07/18 00:02:53;;;;;;;5.15;2.38;;;17.60;77.80;;;;;;5093685;28;20476;-74
2023/07/18 00:05:18;;;;;;;5.82;2.33;;;17.50;78.00;;;;;;5093676;28;20032;-74
2023/07/18 00:07:44;;;;;;;6.38;2.45;;;17.50;78.40;;;;;;5093656;28;20032;-74
2023/07/18 00:10:11;;;;;;;6.18;2.40;;;17.50;78.60;;;;;;5094445;28;20032;-74
2023/07/18 00:12:38;;;;;;;4.95;2.30;;;17.50;78.70;;;;;;5076801;28;20088;-74
2023/07/18 00:15:06;;;;;;;7.28;2.60;;;17.50;78.80;;;;;;5094396;28;20021;-74
2023/07/18 00:17:33;;;;;;;7.20;2.70;;;17.50;78.60;;;;;;5093252;28;20021;-74
2023/07/18 00:20:00;;;;;;;9.10;3.92;;;17.50;78.80;;;;;;5093272;28;20025;-74
2023/07/18 00:22:25;;;;;;;10.10;3.90;;;17.60;78.90;;;;;;5093321;28;20035;-74
2023/07/18 00:24:51;;;;;;;7.65;3.92;;;17.60;78.90;;;;;;5093356;28;20029;-74
2023/07/18 00:27:17;;;;;;;9.10;4.20;;;17.60;79.00;;;;;;5094163;28;20039;-74
2023/07/18 00:29:43;;;;;;;9.65;4.05;;;17.50;79.10;;;;;;5093204;28;20092;-74
2023/07/18 00:32:09;;;;;;;6.40;3.83;;;17.50;78.90;;;;;;5093060;28;20100;-74
2023/07/18 00:34:35;;;;;;;8.20;3.78;;;17.50;79.10;;;;;;5093035;28;20028;-74
2023/07/18 00:37:01;;;;;;;9.82;4.32;;;17.50;79.20;;;;;;5093093;28;20025;-75
2023/07/18 00:39:27;;;;;;;9.20;3.92;;;17.50;79.20;;;;;;5093943;28;20036;-74
2023/07/18 00:41:52;;;;;;;9.35;4.38;;;17.50;79.40;;;;;;5076324;28;20020;-75
2023/07/18 00:44:18;;;;;;;7.10;4.07;;;17.30;79.70;;;;;;5093875;28;20046;-74
2023/07/18 00:46:45;;;;;;;7.70;3.92;;;17.30;80.00;;;;;;5093820;28;20380;-74
2023/07/18 00:49:11;;;;;;;9.35;3.83;;;17.30;80.10;;;;;;5092746;28;20127;-75
2023/07/18 00:51:36;;;;;;;7.13;4.22;;;17.20;80.50;;;;;;5092543;28;20037;-74
2023/07/18 00:54:03;;;;;;;5.85;3.53;;;17.00;81.30;;;;;;5093860;28;20033;-74
2023/07/18 00:56:29;;;;;;;6.90;3.78;;;16.90;81.60;;;;;;5092761;28;20025;-74
2023/07/18 00:58:55;;;;;;;8.50;4.15;;;16.70;82.40;;;;;;5093622;28;20088;-74
2023/07/18 01:01:21;;;;;;;8.85;4.60;;;16.70;83.20;;;;;;5092738;28;20028;-74
2023/07/18 01:03:46;;;;;;;8.95;4.45;;;16.60;83.80;;;;;;5092601;28;20103;-74
2023/07/18 01:06:12;;;;;;;8.27;4.65;;;16.50;84.30;;;;;;5092597;28;20057;-74
2023/07/18 01:08:40;;;;;;;8.95;4.03;;;16.40;84.80;;;;;;5092421;28;20063;-74
2023/07/18 01:11:06;;;;;;;8.07;4.05;;;16.30;85.30;;;;;;5093106;28;20047;-74
2023/07/18 01:13:33;;;;;;;8.68;4.25;;;16.30;85.60;;;;;;5093324;28;20020;-74
2023/07/18 01:15:59;;;;;;;10.68;4.65;;;16.30;85.80;;;;;;5093438;28;20023;-74
2023/07/18 01:18:25;;;;;;;8.32;3.75;;;16.30;85.90;;;;;;5092604;28;20036;-74
2023/07/18 01:20:51;;;;;;;8.38;4.20;;;16.40;86.00;;;;;;5092413;28;20035;-74
2023/07/18 01:23:17;;;;;;;10.45;4.07;;;16.50;85.90;;;;;;5093345;28;20029;-74
2023/07/18 01:25:42;;;;;;;8.00;4.55;;;16.60;85.80;;;;;;5093317;28;20035;-74
2023/07/18 01:28:10;;;;;;;9.85;4.03;;;16.60;85.50;;;;;;5092509;28;20032;-75
2023/07/18 01:30:36;;;;;;;10.35;4.57;;;16.70;85.40;;;;;;5075868;28;20021;-74
2023/07/18 01:33:02;;;;;;;8.63;4.55;;;16.80;85.20;;;;;;5075541;28;20028;-74
2023/07/18 01:35:28;;;;;;;8.98;4.55;;;16.90;85.00;;;;;;5093137;28;20021;-74
2023/07/18 01:37:56;;;;;;;9.88;4.15;;;16.90;85.50;;;;;;5093219;28;20021;-74
2023/07/18 01:40:23;;;;;;;7.88;4.03;;;17.00;84.60;;;;;;5075667;28;20044;-74
2023/07/18 01:42:51;;;;;;;8.75;4.30;;;16.90;84.30;;;;;;5092148;28;20076;-75
2023/07/18 01:45:18;;;;;;;7.72;4.22;;;17.00;84.30;;;;;;5092187;28;20036;-74
2023/07/18 01:47:43;;;;;;;7.90;4.35;;;17.00;84.20;;;;;;5092143;28;20013;-74
2023/07/18 01:50:10;;;;;;;9.60;4.38;;;17.00;83.80;;;;;;5091999;28;20033;-74
2023/07/18 01:52:37;;;;;;;7.28;4.10;;;17.10;83.50;;;;;;5091883;28;20044;-74
2023/07/18 01:55:04;;;;;;;8.38;4.43;;;17.10;83.20;;;;;;5092001;28;20088;-74
2023/07/18 01:57:32;;;;;;;9.85;4.75;;;17.00;83.00;;;;;;5075421;28;20522;-74
2023/07/18 02:00:00;;;;;;;8.60;4.43;;;17.00;83.20;;;;;;5092053;28;20029;-75
2023/07/18 02:02:29;;;;;;;9.10;3.90;;;17.00;83.40;;;;;;5075311;28;20040;-74
2023/07/18 02:04:58;;;;;;;7.07;3.90;;;16.90;83.50;;;;;;5075301;28;20109;-74
2023/07/18 02:07:25;;;;;;;7.00;4.15;;;16.90;83.50;;;;;;5092886;28;20024;-74
2023/07/18 02:09:51;;;;;;;6.47;3.90;;;17.00;83.50;;;;;;5092975;28;20033;-74
2023/07/18 02:12:17;;;;;;;8.60;3.85;;;17.00;83.60;;;;;;5093020;28;20016;-74
2023/07/18 02:14:43;;;;;;;5.72;3.85;;;17.00;83.30;;;;;;5092994;28;20021;-74
2023/07/18 02:17:09;;;;;;;6.50;3.90;;;17.00;83.00;;;;;;5092830;28;20435;-74
2023/07/18 02:19:35;;;;;;;7.22;4.18;;;16.90;82.70;;;;;;5091919;28;20029;-74
2023/07/18 02:22:02;;;;;;;8.00;3.80;;;16.90;82.80;;;;;;5075114;28;20031;-75
2023/07/18 02:24:27;;;;;;;7.65;4.43;;;16.90;82.90;;;;;;5094076;28;20090;-74
2023/07/18 02:26:54;;;;;;;9.18;4.28;;;16.90;82.80;;;;;;5095664;28;20032;-74
2023/07/18 02:29:20;;;;;;;7.53;4.00;;;16.90;82.90;;;;;;5096393;28;20127;-74
2023/07/18 02:31:46;;;;;;;8.35;4.47;;;16.80;82.90;;;;;;5096408;28;20040;-74
2023/07/18 02:34:12;;;;;;;9.48;4.53;;;16.80;83.00;;;;;;5096282;28;20020;-74
2023/07/18 02:36:37;;;;;;;8.00;4.10;;;16.80;83.10;;;;;;5095416;28;20028;-74
2023/07/18 02:39:06;;;;;;;8.82;4.43;;;16.80;82.90;;;;;;5095271;28;20033;-74
2023/07/18 02:41:32;;;;;;;7.15;4.13;;;16.70;82.90;;;;;;5095324;28;20028;-74
2023/07/18 02:43:57;;;;;;;10.15;5.07;;;16.70;83.20;;;;;;5095322;28;20082;-74
2023/07/18 02:46:23;;;;;;;9.63;4.13;;;16.70;83.10;;;;;;5078564;28;20033;-74
2023/07/18 02:48:49;;;;;;;8.35;4.47;;;16.70;83.00;;;;;;5095106;28;20078;-74
2023/07/18 02:51:14;;;;;;;9.93;4.78;;;16.70;82.90;;;;;;5095885;28;20045;-74
2023/07/18 02:53:40;;;;;;;8.02;4.35;;;16.80;82.90;;;;;;5095030;28;20123;-74
2023/07/18 02:56:06;;;;;;;6.38;4.13;;;16.70;82.80;;;;;;5096020;28;20021;-74
2023/07/18 02:58:31;;;;;;;6.95;4.18;;;16.70;82.70;;;;;;5094945;28;20037;-74
2023/07/18 03:00:59;;;;;;;7.78;4.50;;;16.70;82.80;;;;;;5095883;28;20032;-74
2023/07/18 03:03:27;;;;;;;6.90;4.40;;;16.70;82.90;;;;;;5094847;28;20027;-74
2023/07/18 03:05:53;;;;;;;9.60;4.78;;;16.70;82.70;;;;;;5094925;28;20040;-74
2023/07/18 03:08:19;;;;;;;8.43;4.53;;;16.70;82.80;;;;;;5094705;28;20025;-74
2023/07/18 03:10:46;;;;;;;8.77;4.30;;;16.70;82.70;;;;;;5095719;28;20033;-74
2023/07/18 03:13:12;;;;;;;7.55;4.57;;;16.70;82.60;;;;;;5094730;28;20025;-74
2023/07/18 03:15:39;;;;;;;9.43;5.00;;;16.60;83.00;;;;;;5095633;28;20040;-74
2023/07/18 03:18:08;;;;;;;8.50;4.43;;;16.40;83.60;;;;;;5094605;28;20017;-74
2023/07/18 03:20:34;;;;;;;9.55;4.57;;;16.20;84.10;;;;;;5095683;28;20051;-74
2023/07/18 03:23:01;;;;;;;8.00;4.97;;;16.20;84.70;;;;;;5095486;28;20503;-74
2023/07/18 03:25:27;;;;;;;9.90;5.10;;;16.10;85.00;;;;;;5094711;28;20028;-74
2023/07/18 03:27:53;;;;;;;12.77;4.95;;;16.00;85.40;;;;;;5095429;28;20395;-75
2023/07/18 03:30:18;;;;;;;9.18;4.65;;;15.90;85.50;;;;;;5094379;28;20032;-74
2023/07/18 03:32:44;;;;;;;8.95;4.55;;;15.80;86.00;;;;;;5094420;28;20021;-74
2023/07/18 03:35:11;;;;;;;7.70;4.68;;;15.80;86.40;;;;;;5094855;28;20036;-74
2023/07/18 03:37:37;;;;;;;7.95;4.20;;;15.90;86.50;;;;;;5094180;28;20044;-74
2023/07/18 03:40:06;;;;;;;9.00;5.07;;;15.90;86.40;;;;;;5094166;28;20047;-74
2023/07/18 03:42:34;;;;;;;7.45;4.40;;;15.90;86.30;;;;;;5094374;28;20051;-74
2023/07/18 03:45:00;;;;;;;8.60;4.60;;;15.90;86.30;;;;;;5077268;28;20028;-74
2023/07/18 03:47:26;;;;;;;8.35;4.43;;;16.00;86.20;;;;;;5094079;28;20033;-74
2023/07/18 03:49:52;;;;;;;10.13;4.15;;;16.00;85.90;;;;;;5077216;28;20024;-74
2023/07/18 03:52:18;;;;;;;9.80;4.35;;;16.00;85.60;;;;;;5076881;28;20060;-74
2023/07/18 03:54:45;;;;;;;12.93;4.53;;;16.00;85.30;;;;;;5093963;28;20033;-74
2023/07/18 03:57:12;;;;;;;8.38;4.22;;;16.00;85.00;;;;;;5093837;28;20020;-74
2023/07/18 03:59:38;;;;;;;9.50;4.25;;;16.00;84.90;;;;;;5077088;28;20016;-74
2023/07/18 04:02:04;;;;;;;7.00;4.30;;;16.00;85.00;;;;;;5093753;28;20025;-74
2023/07/18 04:04:30;;;;;;;8.05;4.25;;;16.00;85.10;;;;;;5093707;28;20028;-74
2023/07/18 04:06:56;;;;;;;6.80;4.25;;;15.90;85.10;;;;;;5093670;28;20499;-75
2023/07/18 04:09:21;;;;;;;7.97;4.72;;;15.90;85.30;;;;;;5094525;28;20039;-74
2023/07/18 04:11:47;;;;;;;6.50;3.97;;;15.90;85.20;;;;;;5076940;28;20044;-74
2023/07/18 04:14:13;;;;;;;8.38;4.82;;;16.00;85.30;;;;;;5094437;28;20027;-74
2023/07/18 04:16:39;;;;;;;10.63;5.60;;;16.00;85.30;;;;;;5094425;28;20028;-74
2023/07/18 04:19:05;;;;;;;6.82;4.72;;;16.00;85.30;;;;;;5076774;28;20096;-74
2023/07/18 04:21:31;;;;;;;10.02;4.90;;;16.00;85.50;;;;;;5093259;28;20031;-74
2023/07/18 04:23:56;;;;;;;9.35;5.03;;;15.90;85.40;;;;;;5094370;28;20025;-74
2023/07/18 04:26:22;;;;;;;7.32;4.22;;;15.90;85.50;;;;;;5093276;28;20033;-74
2023/07/18 04:28:48;;;;;;;8.27;4.20;;;15.90;85.50;;;;;;5094082;28;20024;-74
2023/07/18 04:31:14;;;;;;;9.85;4.88;;;15.90;85.40;;;;;;5094113;28;20025;-74
2023/07/18 04:33:40;;;;;;;10.73;5.15;;;15.90;85.20;;;;;;5094025;28;20031;-74
2023/07/18 04:36:07;;;;;;;7.50;4.47;;;15.90;85.30;;;;;;5076355;28;20024;-75
2023/07/18 04:38:34;;;;;;;8.18;4.43;;;15.80;85.30;;;;;;5092968;28;20088;-75
2023/07/18 04:41:01;;;;;;;10.40;4.55;;;15.80;85.50;;;;;;5092927;28;20025;-75
2023/07/18 04:43:27;;;;;;;7.90;4.30;;;15.80;85.70;;;;;;5093890;28;20070;-75
2023/07/18 04:45:53;;;;;;;8.73;4.60;;;15.80;85.80;;;;;;5093257;28;20088;-74
2023/07/18 04:48:19;;;;;;;8.23;4.88;;;15.90;85.90;;;;;;5092714;28;20032;-75
2023/07/18 04:50:55;;;;;;;9.32;5.30;;;15.90;85.80;;;;;;5093796;28;20122;-75
2023/07/18 04:53:21;;;;;;;9.68;5.53;;;15.90;86.10;;;;;;5093787;28;20104;-74
2023/07/18 04:55:50;;;;;;;12.15;5.72;;;15.80;86.50;;;;;;5092717;28;20017;-74
2023/07/18 04:58:17;;;;;;;8.65;5.05;;;15.80;86.80;;;;;;5076026;28;20033;-75
2023/07/18 05:00:44;;;;;;;8.07;4.65;;;15.80;86.80;;;;;;5093642;28;20066;-75
2023/07/18 05:03:10;;;;;;;7.93;5.20;;;15.90;86.70;;;;;;5075886;28;20054;-75
2023/07/18 05:05:35;;;;;;;8.43;5.03;;;15.90;86.70;;;;;;5093569;28;20050;-75
2023/07/18 05:08:03;;;;;;;8.80;5.30;;;16.00;86.70;;;;;;5092490;28;20024;-75
2023/07/18 05:10:29;;;;;;;10.13;5.20;;;16.00;86.80;;;;;;5093520;28;20012;-74
2023/07/18 05:12:56;;;;;;;11.57;5.40;;;16.00;87.00;;;;;;5093496;28;20036;-74
2023/07/18 05:15:22;;;;;;;8.45;4.90;;;15.90;86.80;;;;;;5092603;28;20025;-74
2023/07/18 05:17:48;;;;;;;8.18;4.75;;;16.00;86.80;;;;;;5093436;28;20103;-74
2023/07/18 05:20:14;;;;;;;8.07;4.78;;;16.00;87.00;;;;;;5092332;28;20020;-74
2023/07/18 05:22:42;;;;;;;9.18;5.13;;;16.00;87.00;;;;;;5093380;28;20027;-74
2023/07/18 05:25:09;;;;;;;7.80;4.65;;;16.00;87.20;;;;;;5093372;28;20032;-74
2023/07/18 05:27:35;;;;;;;6.35;4.57;;;16.10;87.20;;;;;;5093324;28;20024;-73
2023/07/18 05:30:03;;;;;;;7.53;4.90;;;16.10;87.10;;;;;;5092244;28;20032;-74
2023/07/18 05:32:29;;;;;;;8.70;4.85;;;16.10;87.00;;;;;;5093310;28;20024;-74
2023/07/18 05:34:54;;;;;;;8.52;4.65;;;16.10;87.30;;;;;;5092198;28;20029;-74
2023/07/18 05:37:21;;;;;;;7.88;4.93;;;16.20;86.90;;;;;;5092308;28;20037;-74
2023/07/18 05:39:47;;;;;;;9.70;5.20;;;16.20;86.90;;;;;;5092211;28;20032;-74
2023/07/18 05:42:13;;;;;;;6.63;4.40;;;16.30;86.90;;;;;;5092165;28;20033;-74
2023/07/18 05:44:38;;;;;;;6.95;4.38;;;16.40;86.80;;;;;;5093149;28;20054;-74
2023/07/18 05:47:05;;;;;;;6.40;4.28;;;16.40;87.80;;;;;;5092272;28;20036;-74
2023/07/18 05:49:30;;;;;;;7.95;4.03;;;16.40;86.90;;;;;;5092310;28;20025;-74
2023/07/18 05:51:56;;;;;;;6.93;4.00;;;16.40;86.80;;;;;;5092034;28;20087;-74
2023/07/18 05:54:22;;;;;;;9.05;4.05;;;16.50;86.30;;;;;;5092139;28;20104;-74
2023/07/18 05:56:48;;;;;;;6.88;4.07;;;16.50;86.60;;;;;;5075356;28;20088;-74
2023/07/18 05:59:13;;;;;;;5.47;4.10;;;16.50;86.20;;;;;;5079015;28;20035;-74
2023/07/18 06:01:39;;;;;;;6.28;4.35;;;16.60;86.10;;;;;;5079159;28;20037;-74
2023/07/18 06:04:04;;;;;;;8.35;3.70;;;16.70;85.90;;;;;;5096112;28;20036;-74
2023/07/18 06:06:31;;;;;;;8.50;3.63;;;16.70;85.90;;;;;;5079222;28;20086;-75
2023/07/18 06:08:57;;;;;;;7.90;3.97;;;16.70;85.40;;;;;;5095874;28;20039;-75
2023/07/18 06:11:23;;;;;;;7.68;4.40;;;16.80;85.30;;;;;;5095778;28;20024;-74
2023/07/18 06:13:49;;;;;;;5.35;3.72;;;16.80;85.30;;;;;;5095862;28;20020;-75
2023/07/18 06:16:15;;;;;;;6.50;3.60;;;16.80;85.60;;;;;;5096743;28;20020;-73
2023/07/18 06:18:41;;;;;;;7.35;4.22;;;16.80;84.70;;;;;;5095814;28;20024;-74
2023/07/18 06:21:07;;;;;;;7.15;3.70;;;16.80;85.10;;;;;;5096664;28;20032;-73
2023/07/18 06:23:33;;;;;;;7.90;3.25;;;16.90;84.50;;;;;;5095683;28;20035;-74
2023/07/18 06:25:59;;;;;;;8.00;3.90;;;16.90;84.00;;;;;;5095618;28;20033;-73
2023/07/18 06:28:24;;;;;;;6.30;3.47;;;16.90;84.30;;;;;;5095567;28;20036;-73
2023/07/18 06:30:57;;;;;;;4.45;3.00;;;17.00;85.20;;;;;;5096497;28;20049;-74
2023/07/18 06:33:23;;;;;;;;;;;17.00;84.90;;;;;;5079204;28;20430;-74
2023/07/18 06:35:56;;;;;;;5.57;3.15;;;17.00;84.60;;;;;;5095356;28;19908;-74
2023/07/18 06:38:21;;;;;;;8.82;3.88;;;17.10;85.90;;;;;;5095458;28;20036;-74
2023/07/18 06:40:48;;;;;;;4.40;3.35;;;17.10;85.20;;;;;;5095444;28;20029;-74
2023/07/18 06:43:14;;;;;;;5.88;3.65;;;17.20;85.00;;;;;;5095567;28;20028;-74
2023/07/18 06:45:45;;;;;;;6.82;3.63;;;17.20;84.60;;;;;;5096179;28;20024;-74
2023/07/18 06:48:11;;;;;;;4.18;2.55;;;17.30;84.40;;;;;;5096109;28;20109;-74
2023/07/18 06:50:47;;;;;;;5.25;2.90;;;17.30;83.10;;;;;;5096131;28;20041;-74
2023/07/18 06:53:17;;;;;;;5.65;2.63;;;17.30;83.60;;;;;;5095937;28;20088;-74
2023/07/18 06:55:43;;;;;;;8.25;3.30;;;17.40;83.30;;;;;;5095041;28;20017;-74
2023/07/18 06:58:09;;;;;;;6.28;2.42;;;17.50;83.90;;;;;;5095048;28;20029;-74
2023/07/18 07:00:36;;;;;;;3.80;2.15;;;17.50;83.40;;;;;;5094996;28;20060;-74
2023/07/18 07:03:02;;;;;;;4.85;2.30;;;17.50;83.10;;;;;;5094944;28;20468;-74
2023/07/18 07:05:27;;;;;;;3.45;2.05;;;17.60;82.20;;;;;;5094912;28;20021;-74
2023/07/18 07:07:53;;;;;;;4.30;2.38;;;17.60;81.30;;;;;;5078022;28;20028;-74
2023/07/18 07:10:19;;;;;;;5.30;2.20;;;17.60;80.90;;;;;;5077218;28;20028;-74
2023/07/18 07:12:45;;;;;;;6.82;2.40;;;17.60;82.30;;;;;;5095713;28;20025;-74
2023/07/18 07:15:11;;;;;;;4.05;2.10;;;17.60;82.10;;;;;;5077951;28;20021;-75
2023/07/18 07:17:38;;;;;;;5.82;2.20;;;17.70;82.20;;;;;;5095621;28;20038;-74
2023/07/18 07:20:06;;;;;;;4.10;2.10;;;17.70;81.70;;;;;;5094645;28;20033;-75
2023/07/18 07:22:32;;;;;;;6.45;2.15;;;17.80;81.20;;;;;;5095463;28;20052;-74
2023/07/18 07:24:58;;;;;;;5.18;2.10;;;17.80;80.80;;;;;;5095470;28;20036;-74
2023/07/18 07:27:23;;;;;;;4.65;2.38;;;17.90;81.90;;;;;;5094514;28;20055;-74
2023/07/18 07:29:49;;;;;;;6.03;2.15;;;17.90;80.80;;;;;;5094306;28;20036;-74
2023/07/18 07:32:15;;;;;;;4.55;1.75;;;18.00;81.10;;;;;;5094426;28;20020;-74
2023/07/18 07:34:42;;;;;;;4.75;2.03;;;18.10;80.50;;;;;;5094259;28;20028;-75
2023/07/18 07:37:08;;;;;;;5.43;2.28;;;18.20;80.00;;;;;;5094469;28;20021;-74
2023/07/18 07:39:34;;;;;;;3.72;1.50;;;18.30;80.40;;;;;;5094283;28;20025;-75
2023/07/18 07:42:00;;;;;;;3.80;1.65;;;18.30;80.60;;;;;;5077549;28;20029;-74
2023/07/18 07:44:27;;;;;;;5.40;2.20;;;18.40;79.80;;;;;;5094157;28;20098;-75
2023/07/18 07:46:54;;;;;;;4.45;1.63;;;18.50;80.10;;;;;;5094116;28;20032;-74
2023/07/18 07:49:20;;;;;;;3.65;1.90;;;18.50;79.20;;;;;;5093989;28;20028;-75
2023/07/18 07:51:46;;;;;;;5.25;2.03;;;18.50;79.30;;;;;;5093874;28;20048;-75
2023/07/18 07:54:12;;;;;;;5.13;2.10;;;18.70;79.20;;;;;;5094929;28;20027;-75
2023/07/18 07:56:37;;;;;;;4.43;1.63;;;18.70;79.90;;;;;;5093894;28;20024;-75
2023/07/18 07:59:03;;;;;;;4.78;2.08;;;18.80;78.70;;;;;;5094806;28;20033;-74
2023/07/18 08:01:29;;;;;;;5.38;2.38;;;18.80;78.10;;;;;;5077079;28;20032;-75
2023/07/18 08:03:54;;;;;;;4.10;2.40;;;18.80;78.30;;;;;;5093785;28;20033;-75
2023/07/18 08:06:20;;;;;;;4.90;2.47;;;18.80;79.30;;;;;;5077028;28;20153;-75
2023/07/18 08:08:46;;;;;;;4.88;2.13;;;18.90;79.40;;;;;;5094551;28;20033;-75
2023/07/18 08:11:11;;;;;;;3.15;2.00;;;18.90;80.00;;;;;;5094579;28;20016;-76
2023/07/18 08:13:37;;;;;;;3.00;1.95;;;18.90;78.50;;;;;;5094518;28;20072;-75
2023/07/18 08:16:05;;;;;;;3.88;2.33;;;18.90;79.10;;;;;;5094585;28;20028;-75
2023/07/18 08:18:30;;;;;;;5.88;2.33;;;19.00;78.70;;;;;;5093593;28;20523;-75
2023/07/18 08:20:56;;;;;;;6.07;2.40;;;19.10;79.00;;;;;;5093352;28;20043;-74
2023/07/18 08:23:22;;;;;;;4.78;2.03;;;19.20;78.30;;;;;;5093274;28;20383;-73
2023/07/18 08:25:49;;;;;;;2.63;1.65;;;19.20;77.40;;;;;;5093314;28;20032;-73
2023/07/18 08:28:14;;;;;;;2.60;1.70;;;19.20;75.40;;;;;;5093109;28;20035;-74
2023/07/18 08:30:40;;;;;;;3.40;1.40;;;19.30;77.10;;;;;;5093247;28;20052;-74
2023/07/18 08:33:07;;;;;;;3.47;1.50;;;19.40;76.70;;;;;;5094126;28;20020;-74
2023/07/18 08:35:33;;;;;;;2.40;1.33;;;19.50;75.50;;;;;;5092943;28;20047;-73
2023/07/18 08:37:58;;;;;;;4.22;1.58;;;19.50;74.20;;;;;;5093079;28;20041;-74
2023/07/18 08:40:24;;;;;;;3.25;1.17;;;19.60;75.10;;;;;;5092931;28;20058;-74
2023/07/18 08:42:50;;;;;;;1.90;1.10;;;19.70;75.20;;;;;;5092995;28;20024;-73
2023/07/18 08:45:17;;;;;;;2.83;1.38;;;19.80;74.50;;;;;;5076158;28;20041;-74
2023/07/18 08:47:43;;;;;;;3.90;1.20;;;19.90;71.30;;;;;;5092943;28;20032;-73
2023/07/18 08:50:12;;;;;;;2.17;0.88;;;19.90;71.50;;;;;;5092866;28;20027;-74
2023/07/18 08:52:38;;;;;;;2.55;1.10;;;19.90;73.10;;;;;;5093657;28;20078;-74
2023/07/18 08:55:05;;;;;;;1.05;0.82;;;20.00;72.80;;;;;;5093714;28;20042;-73
2023/07/18 08:57:30;;;;;;;1.55;0.98;;;20.00;71.00;;;;;;5092667;28;20055;-73
2023/07/18 08:59:59;;;;;;;2.88;0.82;;;20.10;72.30;;;;;;5092600;28;20024;-73
2023/07/18 09:02:25;;;;;;;1.15;0.60;;;20.20;72.10;;;;;;5092697;28;20067;-73
2023/07/18 09:04:50;;;;;;;1.92;0.80;;;20.40;71.00;;;;;;5093586;28;20020;-73
2023/07/18 09:07:19;;;;;;;2.28;0.85;;;20.40;71.00;;;;;;5093570;28;20020;-73
2023/07/18 09:09:46;;;;;;;3.38;1.10;;;20.50;70.00;;;;;;5075954;28;20036;-74
2023/07/18 09:12:13;;;;;;;2.03;0.60;;;20.60;69.40;;;;;;5075963;28;20017;-73
2023/07/18 09:14:39;;;;;;;1.38;0.60;;;20.70;69.00;;;;;;5093507;28;20024;-73
2023/07/18 09:17:06;;;;;;;2.25;0.50;;;20.70;68.00;;;;;;5092420;28;20059;-73
2023/07/18 09:19:36;;;;;;;1.38;0.70;;;20.80;67.30;;;;;;5092337;28;20031;-73
2023/07/18 09:22:04;;;;;;;4.03;1.67;;;20.80;65.40;;;;;;5093390;28;20074;-73
2023/07/18 09:24:31;;;;;;;1.08;0.60;;;20.90;67.70;;;;;;5093322;28;20024;-73
2023/07/18 09:26:57;;;;;;;2.25;0.70;;;20.90;67.20;;;;;;5093305;28;20042;-73
2023/07/18 09:29:25;;;;;;;1.00;0.60;;;21.00;67.60;;;;;;5092303;28;20032;-73
2023/07/18 09:31:50;;;;;;;1.48;0.68;;;21.10;68.60;;;;;;5109200;28;20092;-73
2023/07/18 09:34:18;;;;;;;2.25;0.60;;;21.20;67.60;;;;;;5093090;28;20051;-73
2023/07/18 09:36:58;;;;;;;2.47;0.80;;;21.30;66.40;;;;;;5093254;28;20013;-73
2023/07/18 09:39:24;;;;;;;2.08;0.40;;;21.30;63.80;;;;;;5092207;28;20032;-73
2023/07/18 09:41:51;;;;;;;1.73;0.40;;;21.30;64.60;;;;;;5093154;28;20166;-72
2023/07/18 09:44:18;;;;;;;1.35;0.40;;;21.40;63.20;;;;;;5092303;28;20112;-73
2023/07/18 09:46:44;;;;;;;3.42;0.43;;;21.30;62.90;;;;;;5092107;28;20023;-73
2023/07/18 09:49:10;;;;;;;0.88;0.40;;;21.40;63.90;;;;;;5093000;28;20049;-73
2023/07/18 09:51:38;;;;;;;0.82;0.40;;;21.50;62.50;;;;;;5092926;28;20479;-73
2023/07/18 09:54:06;;;;;;;4.30;0.40;;;21.60;63.60;;;;;;5092058;28;20040;-73
2023/07/18 09:56:39;;;;;;;1.38;0.30;;;21.60;61.60;;;;;;5092013;28;20016;-73
2023/07/18 09:59:08;;;;;;;0.40;0.30;;;21.70;61.20;;;;;;5093068;28;20021;-73
2023/07/18 10:01:34;;;;;;;1.83;0.30;;;21.80;61.60;;;;;;5092078;28;20111;-74
2023/07/18 10:04:01;;;;;;;0.43;0.20;;;21.90;62.60;;;;;;5075343;28;20035;-74
2023/07/18 10:06:27;;;;;;;1.15;0.30;;;21.90;59.00;;;;;;5092974;28;20046;-73
2023/07/18 10:08:54;;;;;;;1.25;0.20;;;21.60;57.80;;;;;;5092871;28;20379;-73
2023/07/18 10:11:20;;;;;;;0.95;0.40;;;21.70;59.50;;;;;;5093010;28;20056;-73
2023/07/18 10:13:54;;;;;;;0.77;0.25;;;21.60;57.80;;;;;;5091953;28;20035;-73
2023/07/18 10:16:21;;;;;;;1.30;0.40;;;21.60;61.30;;;;;;5091865;28;20024;-73
2023/07/18 10:18:49;;;;;;;1.15;0.38;;;21.70;60.70;;;;;;5092860;28;20032;-73
2023/07/18 10:21:37;;;;;;;1.75;0.57;;;21.80;59.90;;;;;;5092803;28;20478;-73
2023/07/18 10:24:21;;;;;;;0.25;0.20;;;22.00;59.40;;;;;;5092948;28;20142;-73
2023/07/18 10:26:59;;;;;;;1.10;0.20;;;22.10;58.30;;;;;;5092782;28;20072;-73
2023/07/18 10:29:31;;;;;;;1.00;0.30;;;22.20;61.00;;;;;;5092745;28;20044;-73
2023/07/18 10:31:57;;;;;;;0.43;0.20;;;22.30;56.50;;;;;;5092808;28;20082;-73
2023/07/18 10:34:23;;;;;;;0.68;0.20;;;22.40;58.50;;;;;;5092636;28;20021;-73
2023/07/18 10:36:57;;;;;;;1.02;0.30;;;22.50;58.30;;;;;;5092666;28;20081;-73
2023/07/18 10:39:40;;;;;;;2.13;0.50;;;22.60;58.20;;;;;;5092649;28;20067;-73
2023/07/18 10:42:26;;;;;;;1.20;0.45;;;22.70;57.10;;;;;;5092638;28;20084;-73
2023/07/18 10:44:58;;;;;;;0.75;0.35;;;22.50;55.40;;;;;;5094012;28;20032;-73
2023/07/18 10:47:24;;;;;;;1.63;0.20;;;22.40;55.50;;;;;;5095197;28;20096;-73
2023/07/18 10:49:50;;;;;;;0.88;0.30;;;22.30;56.40;;;;;;5096094;28;20107;-73
2023/07/18 10:52:18;;;;;;;1.83;0.40;;;22.30;57.30;;;;;;5094905;28;20041;-73
2023/07/18 10:54:57;;;;;;;0.50;0.22;;;22.30;55.10;;;;;;5095125;28;20024;-73
2023/07/18 10:57:27;;;;;;;1.27;0.20;;;22.50;56.90;;;;;;5096015;28;20024;-73
2023/07/18 10:59:54;;;;;;;1.23;0.50;;;22.60;55.00;;;;;;5096022;28;20035;-73
2023/07/18 11:02:23;;;;;;;1.33;0.40;;;22.70;54.60;;;;;;5094910;28;20549;-73
2023/07/18 11:04:51;;;;;;;1.40;0.40;;;22.80;52.70;;;;;;5078103;28;20126;-73
2023/07/18 11:07:17;;;;;;;1.20;0.30;;;22.80;52.80;;;;;;5094806;28;20017;-74
2023/07/18 11:09:43;;;;;;;2.05;0.30;;;22.90;52.80;;;;;;5094794;28;20044;-73
2023/07/18 11:12:18;;;;;;;3.28;0.40;;;22.90;51.90;;;;;;5095772;28;20043;-73
2023/07/18 11:14:45;;;;;;;1.58;0.30;;;23.00;52.20;;;;;;5095722;28;20036;-73
2023/07/18 11:17:18;;;;;;;1.30;0.30;;;23.10;56.00;;;;;;5095663;28;20089;-73
2023/07/18 11:19:46;;;;;;;1.70;0.70;;;23.00;54.30;;;;;;5095791;28;20029;-73
2023/07/18 11:22:13;;;;;;;0.88;0.40;;;23.00;52.00;;;;;;5094618;28;20028;-73
2023/07/18 11:24:42;;;;;;;1.00;0.38;;;23.10;53.90;;;;;;5095542;28;20472;-73
2023/07/18 11:27:17;;;;;;;2.78;0.35;;;23.10;55.10;;;;;;5095649;28;20049;-73
2023/07/18 11:30:03;;;;;;;1.75;0.60;;;23.10;56.10;;;;;;5094374;28;20382;-73
2023/07/18 11:32:38;;;;;;;0.60;0.35;;;23.20;58.70;;;;;;5095547;28;20051;-73
2023/07/18 11:35:12;;;;;;;1.05;0.38;;;23.30;49.90;;;;;;5094214;28;20025;-73
2023/07/18 11:37:41;;;;;;;0.98;0.60;;;23.20;48.90;;;;;;5095319;28;20013;-73
2023/07/18 11:40:08;;;;;;;1.02;0.38;;;23.10;48.30;;;;;;5094270;28;20051;-73
2023/07/18 11:42:49;;;;;;;4.88;0.70;;;23.30;51.80;;;;;;5095214;28;20028;-73
2023/07/18 11:45:17;;;;;;;1.83;0.60;;;23.50;52.00;;;;;;5095150;28;20025;-73
2023/07/18 11:47:44;;;;;;;1.38;0.45;;;23.60;52.00;;;;;;5095099;28;20032;-73
2023/07/18 11:50:11;;;;;;;2.08;0.60;;;23.60;55.00;;;;;;5093903;28;20032;-73
2023/07/18 11:52:37;;;;;;;1.58;0.60;;;23.60;53.60;;;;;;5094802;28;20033;-73
2023/07/18 11:55:03;;;;;;;1.30;0.50;;;23.60;52.10;;;;;;5093671;28;20024;-73
2023/07/18 11:57:29;;;;;;;1.83;0.40;;;23.50;50.90;;;;;;5094821;28;20021;-74
2023/07/18 11:59:55;;;;;;;3.05;0.50;;;23.60;50.40;;;;;;5093854;28;20386;-73
2023/07/18 12:02:20;;;;;;;1.02;0.30;;;23.60;49.50;;;;;;5094747;28;20036;-73
2023/07/18 12:04:46;;;;;;;1.33;0.57;;;23.70;49.90;;;;;;5093792;28;20033;-73
2023/07/18 12:07:11;;;;;;;0.85;0.50;;;23.70;49.60;;;;;;5093625;28;20028;-73
2023/07/18 12:09:37;;;;;;;1.00;0.38;;;23.90;49.40;;;;;;5094556;28;20033;-73
2023/07/18 12:12:03;;;;;;;1.30;0.50;;;23.90;50.20;;;;;;5093560;28;20028;-73
2023/07/18 12:14:31;;;;;;;1.52;0.40;;;24.00;49.60;;;;;;5094549;28;20017;-74
2023/07/18 12:16:56;;;;;;;0.55;0.30;;;24.10;49.70;;;;;;5094460;28;20024;-73
2023/07/18 12:19:22;;;;;;;1.10;0.43;;;24.20;52.50;;;;;;5094435;28;20037;-74
2023/07/18 12:21:49;;;;;;;0.43;0.40;;;24.20;51.00;;;;;;5093427;28;20044;-73
2023/07/18 12:24:14;;;;;;;1.77;0.47;;;24.20;49.40;;;;;;5093297;28;20032;-73
2023/07/18 12:26:40;;;;;;;1.40;0.50;;;24.30;50.30;;;;;;5094273;28;20033;-73
2023/07/18 12:29:06;;;;;;;2.50;0.45;;;24.20;47.80;;;;;;5094134;28;20032;-73
2023/07/18 12:31:33;;;;;;;1.02;0.52;;;24.10;47.60;;;;;;5093109;28;20032;-73
2023/07/18 12:33:59;;;;;;;2.90;0.60;;;24.00;49.30;;;;;;5094079;28;20403;-73
2023/07/18 12:36:24;;;;;;;2.97;0.55;;;24.10;49.80;;;;;;5093135;28;20035;-73
2023/07/18 12:38:50;;;;;;;3.95;0.47;;;24.10;48.30;;;;;;5094062;28;20036;-75
2023/07/18 12:41:17;;;;;;;1.23;0.60;;;24.20;48.30;;;;;;5094002;28;20025;-76
2023/07/18 12:43:43;;;;;;;0.60;0.40;;;24.20;48.20;;;;;;5093955;28;20028;-76